ADDS METAR Data INFO
IDs: Format: Raw Decoded Include TAF

Data at: 0739 UTC 23 Apr 2018

KHOU 230653Z 33004KT 10SM SCT250 15/11 A3004 RMK AO2 SLP176 T01500106
KHOU 230553Z 35005KT 10SM FEW250 17/11 A3003 RMK AO2 SLP173 T01670106 10217 20167 402280150 51004
KHOU 230453Z 35007KT 10SM CLR 17/11 A3003 RMK AO2 SLP173 T01720106
KHOU 230353Z 32006KT 10SM CLR 18/11 A3003 RMK AO2 SLP173 T01830106
KHOU 230253Z 34008KT 10SM CLR 19/11 A3002 RMK AO2 SLP169 T01890111 53017
KHOU 230153Z 32005KT 10SM CLR 20/11 A3000 RMK AO2 SLP164 T02000111
KHOU 230053Z 33008KT 10SM CLR 21/11 A2998 RMK AO2 SLP157 T02060106
KHOU 222353Z COR 33013KT 10SM FEW250 22/11 A2997 RMK AO2 SLP153 T02170106 10228 20183 56006
KHOU 222253Z 33011KT 10SM FEW040 FEW250 22/11 A2997 RMK AO2 SLP153 T02220106
KHOU 222153Z 33012KT 10SM FEW040 SCT150 22/11 A2996 RMK AO2 SLP151 T02220106
KHOU 222053Z 32012G17KT 10SM FEW040 SCT150 SCT250 22/12 A2999 RMK AO2 SLP158 T02220117 58019
KHOU 221953Z 33009G21KT 290V360 10SM FEW038 SCT250 21/13 A3001 RMK AO2 SLP166 T02110128
KHOU 221853Z 32016KT 10SM FEW020 SCT250 20/12 A3002 RMK AO2 SLP170 T02000122
KHOU 221753Z 30014G21KT 10SM FEW017 SCT250 18/12 A3004 RMK AO2 SLP178 T01830122 10183 20150 50004
KHOU 221731Z 31014KT 10SM SCT018 17/13 A3005 RMK AO2 T01720128
KHOU 221653Z 30014KT 10SM OVC015 16/13 A3005 RMK AO2 SLP181 T01610128
KHOU 221553Z 30012KT 10SM OVC011 15/13 A3005 RMK AO2 SLP180 T01500133
KHOU 221453Z 30012KT 10SM OVC011 15/14 A3003 RMK AO2 SLP174 T01500139 51023
KHOU 221353Z 32014KT 10SM OVC012 16/14 A3001 RMK AO2 SLP167 T01610144
KHOU 221332Z 32011KT 10SM BKN013 17/15 A3000 RMK AO2 T01670150
KHOU 221315Z 34013KT 10SM BKN028 17/16 A2999 RMK AO2 T01720156
KHOU 221300Z 33010KT 10SM FEW008 SCT026 17/16 A2999 RMK AO2 T01670156
KHOU 221253Z 33009KT 10SM FEW008 BKN026 17/16 A2999 RMK AO2 SLP159 T01670156
KHOU 221228Z 33012G17KT 4SM BR SCT005 OVC026 17/17 A2998 RMK AO2 T01670167
KHOU 221153Z 31016G20KT 2SM BR OVC006 17/17 A2996 RMK AO2 SLP151 60000 70154 T01720172 10206 20172 51014
KHOU 221150Z 30014G21KT 2SM BR OVC006 17/17 A2996 RMK AO2
KHOU 221124Z 31010KT 6SM BR SCT006 BKN010 OVC018 19/19 A2995 RMK AO2 T01890189
KHOU 221053Z 31008KT 9SM BKN008 BKN018 BKN028 19/19 A2994 RMK AO2 SLP142 T01940194
KHOU 220953Z 31008KT 8SM BKN008 BKN012 BKN045 20/20 A2992 RMK AO2 SLP138 T02000200
KHOU 220929Z 30008KT 8SM BKN008 BKN012 BKN050 20/20 A2992 RMK AO2 T02000200
KHOU 220853Z 27006KT 7SM SCT008 BKN020 BKN040 20/20 A2991 RMK AO2 RAB22E35 SLP134 P0000 60000 T02000200 51004
KHOU 220845Z 28007KT 7SM SCT005 SCT020 BKN040 20/20 A2992 RMK AO2 RAB22E35 P0000 T02000200
KHOU 220827Z 29005KT 6SM -RA BR FEW004 BKN016 BKN032 20/20 A2991 RMK AO2 RAB22 P0000 T02000200
KHOU 220803Z 25005KT 9SM FEW004 SCT020 BKN036 20/20 A2991 RMK AO2 T02000200
KHOU 220753Z 26005KT 8SM SCT020 BKN036 20/20 A2991 RMK AO2 SLP133 T02000200
KHOU 220653Z 25006KT 8SM BKN030 21/21 A2991 RMK AO2 SLP133 T02060206
KHOU 220553Z 32009KT 10SM FEW008 BKN055 OVC075 20/20 A2990 RMK AO2 WSHFT 0457 RAE40 TSE23 SLP130 P0034 60154 T02000200 10228 20194 402390172 53013
KHOU 220529Z 36010KT 3SM -RA BR SCT007 BKN055 OVC080 20/20 A2990 RMK AO2 WSHFT 0457 TSE23 P0034 T02000200
KHOU 220523Z 02008KT 1 1/2SM -RA BR SCT009 BKN022 OVC085 20/20 A2990 RMK AO2 WSHFT 0457 TSE23 P0034 T02000200
KHOU 220513Z 02013KT 1SM +TSRA BR SCT009 BKN017 OVC022 20/20 A2989 RMK AO2 WSHFT 0457 LTG DSNT SE AND S FRQ LTGICCCCG SE-S TS SE-S MOV NE P0031 T02000200
KHOU 220453Z 03010KT 1 1/2SM +TSRA BR BKN009 BKN016CB OVC032 19/19 A2990 RMK AO2 LTG DSNT NE-SE SLP129 FRQ LTGICCCCG E-S TS E-S MOV NE P0116 T01940194
KHOU 220450Z 03008KT 1 1/4SM +TSRA BR BKN009 BKN016CB OVC032 20/20 A2990 RMK AO2 LTG DSNT NE-SE FRQ LTGICCCCG E-S TS E-S MOV NE P0110
KHOU 220438Z 31005KT 3/4SM +TSRA BR SCT005 BKN022CB OVC032 20/20 A2992 RMK AO2 LTG DSNT NE-S FRQ LTGICCCCG OHD TS OHD MOV NE P0092 T02000200
KHOU 220431Z 34006KT 1 1/4SM +TSRA BR SCT005 BKN012CB OVC018 21/21 A2991 RMK AO2 LTG DSNT E AND S FRQ LTGICCCCG OHD TS OHD MOV NE P0060 T02060206
KHOU 220416Z 22010KT 1 1/2SM +TSRA BR BKN012CB OVC016 22/22 A2990 RMK AO2 LTG DSNT ALQDS FRQ LTGICCCCG OHD TS OHD MOV NE P0023 T02170217
KHOU 220414Z 21008G17KT 2SM +TSRA BR BKN012CB OVC016 22/22 A2990 RMK AO2 LTG DSNT ALQDS PRESRR FRQ LTGICCCCG OHD TS OHD MOV NE P0017 T02170217
KHOU 220353Z 16011G16KT 6SM -TSRA BR BKN012CB BKN017 OVC041 22/22 A2987 RMK AO2 LTG DSNT SW AND W RAE14B42 TSB21 SLP119 FRQ LTGICCCCG SW-N TS SW-N MOV NE P0002 T02170217
KHOU 220321Z 15009G20KT 10SM TS BKN012CB OVC041 21/21 A2984 RMK AO2 LTG DSNT SW AND W RAE14 TSB21 PRESFR OCNL LTGICCG VC W TS VC W MOV NE P0001 T02110211
KHOU 220253Z 14011KT 6SM -RA BR BKN014 OVC045 21/21 A2987 RMK AO2 RAB03 SLP118 P0002 60002 T02110211 58012
KHOU 220243Z 14013KT 6SM RA BR BKN014 BKN045 OVC055 22/21 A2987 RMK AO2 RAB03 P0001 T02170211
KHOU 220153Z 14008KT 10SM BKN016 BKN040 OVC080 22/21 A2989 RMK AO2 SLP127 T02170206
KHOU 220053Z 13007KT 10SM BKN018 BKN045 OVC085 22/21 A2988 RMK AO2 SLP124 T02220206
KHOU 212353Z 14010KT 10SM SCT019 BKN030 OVC047 23/20 A2990 RMK AO2 SLP129 60000 T02280200 10239 20222 56015
KHOU 212253Z 15011KT 10SM SCT019 BKN030 OVC050 23/21 A2991 RMK AO2 RAE04 SLP134 P0000 T02280206
KHOU 212153Z 16012G17KT 6SM -RA BR SCT019 BKN030 OVC050 22/21 A2993 RMK AO2 RAB48 SLP138 P0000 T02220206
KHOU 212053Z 16015G22KT 10SM SCT019 BKN028 OVC070 23/20 A2994 RMK AO2 SLP144 60000 T02330200 58015
KHOU 211953Z 15012KT 9SM BKN021 BKN035 OVC065 23/21 A2997 RMK AO2 RAE02B36E48 SLP154 P0000 T02330206